Flight Track Log - Related Links

Times and Time Zones

All times are in EDT time to prevent confusion due to time zone crossing. See the ORK461 flight status page for this flight to view local times or setup timezone preferences in your user account.


Time Position Orientation Groundspeed Altitude Reporting Facility
EDT Latitude Longitude Course Direction KTS MPH feet Rate Location/Type
Thu 05:40:58 PM 50.7000 -120.5000 298° West 110 127 3,400  Level Vancouver Center
Thu 05:41:58 PM 50.7167 -120.5500 298° West 110 127 4,700 1,250 Climbing Vancouver Center
Thu 05:42:58 PM 50.7167 -120.6000 270° West 120 138 5,900 1,150 Climbing Vancouver Center
Thu 05:43:58 PM 50.7167 -120.6667 270° West 130 150 7,000 1,050 Climbing Vancouver Center
Thu 05:44:58 PM 50.7333 -120.7167 298° West 140 161 8,000 1,000 Climbing Vancouver Center
Thu 05:45:58 PM 50.7000 -120.7667 224° Southwest 150 173 9,000 1,050 Climbing Vancouver Center
Thu 05:46:58 PM 50.6667 -120.8167 224° Southwest 160 184 10,100 1,100 Climbing Vancouver Center
Thu 05:47:58 PM 50.6333 -120.8500 212° Southwest 160 184 11,200 1,000 Climbing Vancouver Center
Thu 05:48:58 PM 50.6000 -120.8833 212° Southwest 150 173 12,100 500 Climbing Vancouver Center
Thu 05:49:58 PM 50.5500 -120.9333 212° Southwest 170 196 12,200 -50 Climbing Vancouver Center
Thu 05:50:58 PM 50.5167 -120.9833 224° Southwest 180 207 12,000  Descending Vancouver Center
Thu 05:52:00 PM 50.4858 -121.0370 228° Southwest  Level Estimated
Thu 05:52:58 PM 50.4333 -121.0667 228° Southwest 190 219 12,200  Level Vancouver Center
Thu 05:53:58 PM 50.4000 -121.1333 232° Southwest 200 230 12,000 -100 Descending Vancouver Center
Thu 05:54:58 PM 50.3500 -121.1833 213° Southwest 200 230 12,000 50 Level Vancouver Center
Thu 05:55:58 PM 50.3000 -121.2167 203° Southwest 190 219 12,100 50 Climbing Vancouver Center
Thu 05:56:58 PM 50.2667 -121.2667 224° Southwest 200 230 12,100 -50 Level Vancouver Center
Thu 05:57:58 PM 50.2167 -121.3167 213° Southwest 200 230 12,000 -50 Descending Vancouver Center
Thu 05:58:58 PM 50.1667 -121.3667 213° Southwest 200 230 12,000 50 Level Vancouver Center
Thu 05:59:58 PM 50.1333 -121.4333 232° Southwest 200 230 12,100 100 Climbing Vancouver Center
Thu 06:00:58 PM 50.0833 -121.4500 192° South 200 230 12,200  Climbing Vancouver Center
Thu 06:01:58 PM 50.0333 -121.5167 221° Southwest 200 230 12,100 -50 Descending Vancouver Center
Thu 06:02:58 PM 49.9833 -121.5667 213° Southwest 200 230 12,100 50 Level Vancouver Center
Thu 06:03:58 PM 49.9333 -121.6167 213° Southwest 200 230 12,200  Climbing Vancouver Center
Thu 06:04:58 PM 49.9000 -121.6500 213° Southwest 190 219 12,100  Descending Vancouver Center
Thu 06:05:58 PM 49.8500 -121.7000 213° Southwest 190 219 12,200 50 Climbing Vancouver Center
Thu 06:06:58 PM 49.8167 -121.7500 224° Southwest 180 207 12,200  Level Vancouver Center
Thu 06:07:59 PM 49.7667 -121.7833 203° Southwest 180 207 12,200 -50 Level Vancouver Center
Thu 06:08:59 PM 49.7167 -121.8333 213° Southwest 190 219 12,100 -200 Descending Vancouver Center
Thu 06:09:59 PM 49.6833 -121.8833 224° Southwest 190 219 11,800 -350 Descending Vancouver Center
Thu 06:10:59 PM 49.6500 -121.9500 232° Southwest 200 230 11,400 -400 Descending Vancouver Center
Thu 06:11:59 PM 49.6167 -122.0167 232° Southwest 210 242 11,000 -450 Descending Vancouver Center
Thu 06:12:59 PM 49.5667 -122.0667 213° Southwest 210 242 10,500 -500 Descending Vancouver Center
Thu 06:13:59 PM 49.5333 -122.1333 232° Southwest 210 242 10,000 -300 Descending Vancouver Center
Thu 06:14:59 PM 49.4833 -122.2000 221° Southwest 190 219 9,900 -50 Descending Vancouver Center
Thu 06:15:59 PM 49.4500 -122.2667 232° Southwest 180 207 9,900 -200 Level Vancouver Center
Thu 06:16:59 PM 49.4167 -122.3167 224° Southwest 190 219 9,500 -450 Descending Vancouver Center
Thu 06:17:59 PM 49.3833 -122.3833 232° Southwest 190 219 9,000 -400 Descending Vancouver Center
Thu 06:18:59 PM 49.3500 -122.4333 224° Southwest 180 207 8,700 -450 Descending Vancouver Center
Thu 06:19:59 PM 49.3167 -122.5000 233° Southwest 180 207 8,100 -550 Descending Vancouver Center
Thu 06:20:59 PM 49.2833 -122.5667 233° Southwest 180 207 7,600 -750 Descending Vancouver Center
Thu 06:21:59 PM 49.2500 -122.6167 224° Southwest 180 207 6,600 -950 Descending Vancouver Center
Thu 06:22:59 PM 49.2167 -122.6667 224° Southwest 180 207 5,700 -900 Descending Vancouver Center
Thu 06:23:59 PM 49.2000 -122.7500 253° West 180 207 4,800 -950 Descending Vancouver Center
Thu 06:24:59 PM 49.1833 -122.8000 243° Southwest 170 196 3,800 -900 Descending Vancouver Center
Thu 06:25:59 PM 49.1667 -122.8833 253° West 170 196 3,000 -800 Descending Vancouver Center
Thu 06:26:59 PM 49.1667 -122.9500 270° West 150 173 2,200 -550 Descending Vancouver Center
Thu 06:27:59 PM 49.1667 -123.0000 270° West 140 161 1,900 -400 Descending Vancouver Center
Thu 06:28:59 PM 49.1667 -123.0333 270° West 110 127 1,400 -450 Descending Vancouver Center
Thu 06:29:59 PM 49.1667 -123.0833 270° West 100 115 1,000 -500 Descending Vancouver Center
Thu 06:30:59 PM 49.1833 -123.1333 297° West 100 115 400 -600 Descending Vancouver Center

Login

Don't have an account? Register now (free) for customized features, flight alerts, and more!